Leon — D5BH4 — position and weather

sailwx.info

Track history (hours):
 
Tides and Currents Weather Stations Pressure Air Temp Water Temp Dewpoint Dewpoint Depression Visibility Wind Speed Wind Dir Waves Ship Positions

Leon

Last reported at 2014-Dec-19 20:31 UTC. Time now 2014-Dec-19 21:06 UTC.
Position N 55°41' E 012°38'.

Length 95 m; draft 4.8 m.

Type: Ship (hazmat cat C). MMSI: 636015519.

Date/timePositionNaut miles runAvg speedWind from/ knotsBaromVisibWave heightAir tempDewpointWater temp
2014-Dec-19 20:31N 55°41' E 012°38'0 0.0
2014-Dec-19 19:31N 55°41' E 012°38'0 0.0
2014-Dec-19 18:31N 55°41' E 012°38'0 0.0
2014-Dec-19 17:31N 55°41' E 012°38'0 0.0
2014-Dec-19 16:31N 55°41' E 012°38'0 0.0
2014-Dec-19 15:31N 55°41' E 012°38'0 0.0
2014-Dec-19 14:31N 55°41' E 012°38'1 1.2
2014-Dec-19 13:33N 55°42' E 012°38'9 9.2
2014-Dec-19 12:34N 55°51' E 012°43'1111.0
2014-Dec-19 11:33N 56°01' E 012°39'1212.0
2014-Dec-19 10:33N 56°10' E 012°24'3110.3
2014-Dec-19 07:33N 56°36' E 011°55'1111.1
2014-Dec-19 06:32N 56°47' E 011°50'1111.2
2014-Dec-19 05:33N 56°58' E 011°44'1211.6
2014-Dec-19 04:32N 57°09' E 011°36'1211.9
2014-Dec-19 03:34N 57°20' E 011°30'1211.8
2014-Dec-19 02:33N 57°30' E 011°19'1211.7
2014-Dec-19 01:33N 57°38' E 011°03'9 8.6
2014-Dec-19 00:32N 57°42' E 010°48'10 9.5
2014-Dec-18 23:31N 57°32' E 010°45'12 0.6
2014-Dec-18 03:30N 57°43' E 010°55'9 9.4
2014-Dec-18 02:33N 57°37' E 011°08'9 9.4
2014-Dec-18 01:33N 57°31' E 011°20'9 9.2
2014-Dec-18 00:34N 57°23' E 011°29'1010.0
2014-Dec-17 23:33N 57°13' E 011°35'1110.3
2014-Dec-17 22:27N 57°03' E 011°43'9 9.8
2014-Dec-17 21:33N 56°54' E 011°48'10 9.9
2014-Dec-17 20:32N 56°45' E 011°54'1110.4
2014-Dec-17 19:31N 56°35' E 011°58'23 9.5
2014-Dec-17 17:07N 56°14' E 012°16'5 9.5
2014-Dec-17 16:33N 56°11' E 012°24'9 9.4
2014-Dec-17 15:33N 56°05' E 012°37'9 8.9
2014-Dec-17 14:33N 55°57' E 012°44'9 9.2
2014-Dec-17 13:33N 55°48' E 012°43'7 6.7
2014-Dec-17 12:32N 55°41' E 012°38'0 0.0
2014-Dec-17 11:32N 55°41' E 012°38'0 0.0
2014-Dec-17 10:32N 55°41' E 012°38'0 0.0
2014-Dec-17 09:32N 55°41' E 012°38'0 0.0
2014-Dec-17 08:32N 55°41' E 012°38'0 0.0
2014-Dec-17 07:32N 55°41' E 012°38'0 0.0
2014-Dec-17 06:32N 55°41' E 012°38'0 0.0
2014-Dec-17 05:32N 55°41' E 012°38'0 0.0
2014-Dec-17 04:32N 55°41' E 012°38'0 0.0
2014-Dec-17 03:32N 55°41' E 012°38'0 0.0
2014-Dec-17 02:32N 55°41' E 012°38'0 0.0
2014-Dec-17 01:32N 55°41' E 012°38'0 0.0
2014-Dec-17 00:32N 55°41' E 012°38'0 0.0
2014-Dec-16 23:32N 55°41' E 012°38'0 0.0
2014-Dec-16 22:33N 55°41' E 012°38'0 0.0
2014-Dec-16 21:33N 55°41' E 012°38'0 0.0
2014-Dec-16 20:33N 55°41' E 012°38'0 0.0
2014-Dec-16 19:33N 55°41' E 012°38'0 0.0
2014-Dec-16 18:33N 55°41' E 012°38'6 5.8
2014-Dec-16 17:33N 55°47' E 012°41'1110.7
2014-Dec-16 16:33N 55°57' E 012°42'1111.4
2014-Dec-16 15:33N 56°07' E 012°31'1211.6
2014-Dec-16 14:31N 56°14' E 012°14'67 9.6
2014-Dec-16 07:33N 57°17' E 011°31'10 9.5
2014-Dec-16 06:33N 57°26' E 011°25'1010.2
2014-Dec-16 05:33N 57°33' E 011°13'1210.5
2014-Dec-16 04:25N 57°42' E 010°57'20 1.0
2014-Dec-15 08:21N 57°25' E 010°34'21 5.4
2014-Dec-15 04:33N 57°41' E 011°01'8 8.2
2014-Dec-15 03:33N 57°35' E 011°12'9 8.8
2014-Dec-15 02:33N 57°29' E 011°24'9 9.3
2014-Dec-15 01:34N 57°21' E 011°31'9 9.4
2014-Dec-15 00:34N 57°12' E 011°37'13 9.1
2014-Dec-14 23:09N 56°60' E 011°45'6 9.2
2014-Dec-14 22:32N 56°54' E 011°48'9 9.6
2014-Dec-14 21:33N 56°45' E 011°54'12 9.7
2014-Dec-14 20:22N 56°34' E 011°58'26 9.2
2014-Dec-14 17:33N 56°12' E 012°22'10 9.6
2014-Dec-14 16:34N 56°06' E 012°35'9 9.0
2014-Dec-14 15:33N 55°57' E 012°40'10 9.7
2014-Dec-14 14:33N 55°47' E 012°41'6 6.5
2014-Dec-14 13:33N 55°41' E 012°38'0 0.0
2014-Dec-14 12:33N 55°41' E 012°38'0 0.0
2014-Dec-14 11:33N 55°41' E 012°38'0 0.0
2014-Dec-14 10:33N 55°41' E 012°38'0 0.0
2014-Dec-14 09:33N 55°41' E 012°38'0 0.0
2014-Dec-14 08:33N 55°41' E 012°38'0 0.0
2014-Dec-14 07:33N 55°41' E 012°38'0 0.0
2014-Dec-14 06:33N 55°41' E 012°38'0 0.0
2014-Dec-14 05:30N 55°41' E 012°38'0 0.0
2014-Dec-14 04:33N 55°41' E 012°38'0 0.0
2014-Dec-14 03:33N 55°41' E 012°38'0 0.0
2014-Dec-14 02:33N 55°41' E 012°38'0 0.0
2014-Dec-14 01:33N 55°41' E 012°38'0 0.0
2014-Dec-14 00:33N 55°41' E 012°38'0 0.0
2014-Dec-13 23:33N 55°41' E 012°38'0 0.0
2014-Dec-13 22:33N 55°41' E 012°38'0 0.0
2014-Dec-13 21:33N 55°41' E 012°38'0 0.0
2014-Dec-13 20:33N 55°41' E 012°38'0 0.0
2014-Dec-13 19:33N 55°41' E 012°38'0 0.0
2014-Dec-13 18:33N 55°41' E 012°38'0 0.0
2014-Dec-13 17:33N 55°41' E 012°38'1 0.8
2014-Dec-13 16:34N 55°41' E 012°39'8 7.8
2014-Dec-13 15:33N 55°33' E 012°42'9 9.3
2014-Dec-13 14:34N 55°24' E 012°41'9 8.4
2014-Dec-13 13:33N 55°17' E 012°49'9 9.4
2014-Dec-13 12:33N 55°15' E 013°05'  
Track history (hours):
 
Tides and Currents Weather Stations Pressure Air Temp Water Temp Dewpoint Dewpoint Depression Visibility Wind Speed Wind Dir Waves Ship Positions

Leon

Last reported at 2014-Dec-19 20:31 UTC. Time now 2014-Dec-19 21:06 UTC.
Position N 55°41' E 012°38'.

Length 95 m; draft 4.8 m.

Type: Ship (hazmat cat C). MMSI: 636015519.

Date/timePositionNaut miles runAvg speedWind from/ knotsBaromVisibWave heightAir tempDewpointWater temp
2014-Dec-19 20:31N 55°41' E 012°38'0 0.0
2014-Dec-19 19:31N 55°41' E 012°38'0 0.0
2014-Dec-19 18:31N 55°41' E 012°38'0 0.0
2014-Dec-19 17:31N 55°41' E 012°38'0 0.0
2014-Dec-19 16:31N 55°41' E 012°38'0 0.0
2014-Dec-19 15:31N 55°41' E 012°38'0 0.0
2014-Dec-19 14:31N 55°41' E 012°38'1 1.2
2014-Dec-19 13:33N 55°42' E 012°38'9 9.2
2014-Dec-19 12:34N 55°51' E 012°43'1111.0
2014-Dec-19 11:33N 56°01' E 012°39'1212.0
2014-Dec-19 10:33N 56°10' E 012°24'3110.3
2014-Dec-19 07:33N 56°36' E 011°55'1111.1
2014-Dec-19 06:32N 56°47' E 011°50'1111.2
2014-Dec-19 05:33N 56°58' E 011°44'1211.6
2014-Dec-19 04:32N 57°09' E 011°36'1211.9
2014-Dec-19 03:34N 57°20' E 011°30'1211.8
2014-Dec-19 02:33N 57°30' E 011°19'1211.7
2014-Dec-19 01:33N 57°38' E 011°03'9 8.6
2014-Dec-19 00:32N 57°42' E 010°48'10 9.5
2014-Dec-18 23:31N 57°32' E 010°45'12 0.6
2014-Dec-18 03:30N 57°43' E 010°55'9 9.4
2014-Dec-18 02:33N 57°37' E 011°08'9 9.4
2014-Dec-18 01:33N 57°31' E 011°20'9 9.2
2014-Dec-18 00:34N 57°23' E 011°29'1010.0
2014-Dec-17 23:33N 57°13' E 011°35'1110.3
2014-Dec-17 22:27N 57°03' E 011°43'9 9.8
2014-Dec-17 21:33N 56°54' E 011°48'10 9.9
2014-Dec-17 20:32N 56°45' E 011°54'1110.4
2014-Dec-17 19:31N 56°35' E 011°58'23 9.5
2014-Dec-17 17:07N 56°14' E 012°16'5 9.5
2014-Dec-17 16:33N 56°11' E 012°24'9 9.4
2014-Dec-17 15:33N 56°05' E 012°37'9 8.9
2014-Dec-17 14:33N 55°57' E 012°44'9 9.2
2014-Dec-17 13:33N 55°48' E 012°43'7 6.7
2014-Dec-17 12:32N 55°41' E 012°38'0 0.0
2014-Dec-17 11:32N 55°41' E 012°38'0 0.0
2014-Dec-17 10:32N 55°41' E 012°38'0 0.0
2014-Dec-17 09:32N 55°41' E 012°38'0 0.0
2014-Dec-17 08:32N 55°41' E 012°38'0 0.0
2014-Dec-17 07:32N 55°41' E 012°38'0 0.0
2014-Dec-17 06:32N 55°41' E 012°38'0 0.0
2014-Dec-17 05:32N 55°41' E 012°38'0 0.0
2014-Dec-17 04:32N 55°41' E 012°38'0 0.0
2014-Dec-17 03:32N 55°41' E 012°38'0 0.0
2014-Dec-17 02:32N 55°41' E 012°38'0 0.0
2014-Dec-17 01:32N 55°41' E 012°38'0 0.0
2014-Dec-17 00:32N 55°41' E 012°38'0 0.0
2014-Dec-16 23:32N 55°41' E 012°38'0 0.0
2014-Dec-16 22:33N 55°41' E 012°38'0 0.0
2014-Dec-16 21:33N 55°41' E 012°38'0 0.0
2014-Dec-16 20:33N 55°41' E 012°38'0 0.0
2014-Dec-16 19:33N 55°41' E 012°38'0 0.0
2014-Dec-16 18:33N 55°41' E 012°38'6 5.8
2014-Dec-16 17:33N 55°47' E 012°41'1110.7
2014-Dec-16 16:33N 55°57' E 012°42'1111.4
2014-Dec-16 15:33N 56°07' E 012°31'1211.6
2014-Dec-16 14:31N 56°14' E 012°14'67 9.6
2014-Dec-16 07:33N 57°17' E 011°31'10 9.5
2014-Dec-16 06:33N 57°26' E 011°25'1010.2
2014-Dec-16 05:33N 57°33' E 011°13'1210.5
2014-Dec-16 04:25N 57°42' E 010°57'20 1.0
2014-Dec-15 08:21N 57°25' E 010°34'21 5.4
2014-Dec-15 04:33N 57°41' E 011°01'8 8.2
2014-Dec-15 03:33N 57°35' E 011°12'9 8.8
2014-Dec-15 02:33N 57°29' E 011°24'9 9.3
2014-Dec-15 01:34N 57°21' E 011°31'9 9.4
2014-Dec-15 00:34N 57°12' E 011°37'13 9.1
2014-Dec-14 23:09N 56°60' E 011°45'6 9.2
2014-Dec-14 22:32N 56°54' E 011°48'9 9.6
2014-Dec-14 21:33N 56°45' E 011°54'12 9.7
2014-Dec-14 20:22N 56°34' E 011°58'26 9.2
2014-Dec-14 17:33N 56°12' E 012°22'10 9.6
2014-Dec-14 16:34N 56°06' E 012°35'9 9.0
2014-Dec-14 15:33N 55°57' E 012°40'10 9.7
2014-Dec-14 14:33N 55°47' E 012°41'6 6.5
2014-Dec-14 13:33N 55°41' E 012°38'0 0.0
2014-Dec-14 12:33N 55°41' E 012°38'0 0.0
2014-Dec-14 11:33N 55°41' E 012°38'0 0.0
2014-Dec-14 10:33N 55°41' E 012°38'0 0.0
2014-Dec-14 09:33N 55°41' E 012°38'0 0.0
2014-Dec-14 08:33N 55°41' E 012°38'0 0.0
2014-Dec-14 07:33N 55°41' E 012°38'0 0.0
2014-Dec-14 06:33N 55°41' E 012°38'0 0.0
2014-Dec-14 05:30N 55°41' E 012°38'0 0.0
2014-Dec-14 04:33N 55°41' E 012°38'0 0.0
2014-Dec-14 03:33N 55°41' E 012°38'0 0.0
2014-Dec-14 02:33N 55°41' E 012°38'0 0.0
2014-Dec-14 01:33N 55°41' E 012°38'0 0.0
2014-Dec-14 00:33N 55°41' E 012°38'0 0.0
2014-Dec-13 23:33N 55°41' E 012°38'0 0.0
2014-Dec-13 22:33N 55°41' E 012°38'0 0.0
2014-Dec-13 21:33N 55°41' E 012°38'0 0.0
2014-Dec-13 20:33N 55°41' E 012°38'0 0.0
2014-Dec-13 19:33N 55°41' E 012°38'0 0.0
2014-Dec-13 18:33N 55°41' E 012°38'0 0.0
2014-Dec-13 17:33N 55°41' E 012°38'1 0.8
2014-Dec-13 16:34N 55°41' E 012°39'8 7.8
2014-Dec-13 15:33N 55°33' E 012°42'9 9.3
2014-Dec-13 14:34N 55°24' E 012°41'9 8.4
2014-Dec-13 13:33N 55°17' E 012°49'9 9.4
2014-Dec-13 12:33N 55°15' E 013°05'  

Dump ship's entire track history